Time;durP1;ratioP1;P1;durP2;ratioP2;P2;SDS_P1;SDS_P2;PMS_P1;PMS_P2;Temp;Humidity;BMP_temperature;BMP_pressure;BME280_temperature;BME280_humidity;BME280_pressure;Samples;Min_cycle;Max_cycle;Signal;HPM_P1;HPM_P2
2022/06/01 00:02:49;;;;;;;6.50;6.20;;;13.80;99.90;;;;;;6178883;28;20367;-56
2022/06/01 00:05:53;;;;;;;6.37;5.97;;;13.80;99.90;;;;;;6178769;28;20617;-57
2022/06/01 00:08:56;;;;;;;6.73;6.43;;;13.80;99.90;;;;;;6182714;28;20627;-56
2022/06/01 00:11:59;;;;;;;6.77;6.27;;;13.80;99.90;;;;;;6184883;28;20294;-57
2022/06/01 00:15:03;;;;;;;6.63;6.30;;;13.80;99.90;;;;;;6183702;28;20267;-57
2022/06/01 00:18:08;;;;;;;6.43;6.03;;;13.80;99.90;;;;;;6181600;28;20448;-56
2022/06/01 00:21:11;;;;;;;5.90;5.70;;;13.80;99.90;;;;;;6180234;28;20699;-57
2022/06/01 00:24:13;;;;;;;6.37;5.87;;;13.80;99.90;;;;;;6177853;28;20777;-59
2022/06/01 00:27:19;;;;;;;6.47;6.17;;;13.80;99.90;;;;;;6185177;28;20248;-57
2022/06/01 00:30:23;;;;;;;6.10;5.90;;;13.80;99.90;;;;;;6178983;28;20240;-56
2022/06/01 00:33:27;;;;;;;6.33;6.03;;;13.80;99.90;;;;;;6181450;28;20428;-56
2022/06/01 00:36:30;;;;;;;5.87;5.60;;;13.80;99.90;;;;;;6183798;28;20632;-55
2022/06/01 00:39:33;;;;;;;6.23;5.93;;;13.80;99.90;;;;;;6183727;28;20416;-58
2022/06/01 00:42:39;;;;;;;5.67;5.47;;;13.80;99.90;;;;;;6174744;28;20391;-56
2022/06/01 00:45:42;;;;;;;5.60;5.40;;;13.80;99.90;;;;;;6184999;28;20247;-56
2022/06/01 00:48:49;;;;;;;5.50;5.30;;;13.70;99.90;;;;;;6178905;28;20691;-57
2022/06/01 00:51:52;;;;;;;6.30;6.10;;;13.80;99.90;;;;;;6180777;28;20228;-56
2022/06/01 00:54:55;;;;;;;5.47;5.37;;;13.80;99.90;;;;;;6178971;28;20896;-57
2022/06/01 00:58:01;;;;;;;6.27;5.77;;;13.80;99.90;;;;;;6180433;28;20239;-56
2022/06/01 01:01:08;;;;;;;5.43;5.23;;;13.80;99.90;;;;;;6178156;28;20319;-56
2022/06/01 01:04:12;;;;;;;6.37;5.97;;;13.80;99.90;;;;;;6181300;28;20247;-57
2022/06/01 01:07:16;;;;;;;6.53;6.33;;;13.80;99.90;;;;;;6182494;28;20492;-56
2022/06/01 01:10:19;;;;;;;6.87;6.57;;;13.90;99.90;;;;;;6183529;28;20262;-55
2022/06/01 01:13:23;;;;;;;7.80;7.40;;;13.80;99.90;;;;;;6177205;28;20257;-57
2022/06/01 01:16:27;;;;;;;7.60;7.20;;;13.80;99.90;;;;;;6180483;28;20251;-57
2022/06/01 01:19:36;;;;;;;7.97;7.37;;;13.80;99.90;;;;;;6148857;28;20713;-53
2022/06/01 01:22:47;;;;;;;6.57;6.27;;;13.80;99.90;;;;;;6169450;28;20331;-56
2022/06/01 01:25:51;;;;;;;7.83;7.27;;;13.80;99.90;;;;;;6183954;28;20232;-57
2022/06/01 01:28:54;;;;;;;7.20;6.80;;;13.80;99.90;;;;;;6183011;28;20283;-57
2022/06/01 01:31:58;;;;;;;7.43;7.13;;;13.80;99.90;;;;;;6182636;28;20477;-56
2022/06/01 01:35:01;;;;;;;8.80;7.97;;;13.70;99.90;;;;;;6183594;28;20678;-57
2022/06/01 01:38:09;;;;;;;9.30;8.63;;;13.80;99.90;;;;;;6181400;28;20591;-57
2022/06/01 01:41:18;;;;;;;8.43;7.93;;;13.70;99.90;;;;;;6171107;28;20649;-57
2022/06/01 01:44:25;;;;;;;8.37;7.70;;;13.70;99.90;;;;;;6177292;28;20368;-57
2022/06/01 01:47:28;;;;;;;8.30;7.80;;;13.70;99.90;;;;;;6182472;28;20271;-57
2022/06/01 01:50:31;;;;;;;7.83;7.20;;;13.70;99.90;;;;;;6167737;28;20236;-58
2022/06/01 01:53:34;;;;;;;7.80;7.40;;;13.60;99.90;;;;;;6182849;28;20232;-56
2022/06/01 01:57:01;;;;;;;7.00;6.70;;;13.60;99.90;;;;;;6178580;28;20710;-57
2022/06/01 02:00:08;;;;;;;6.63;6.30;;;13.60;99.90;;;;;;6171128;28;20306;-56
2022/06/01 02:03:17;;;;;;;6.90;6.60;;;13.60;99.90;;;;;;6180179;28;20662;-56
2022/06/01 02:06:28;;;;;;;6.67;6.47;;;13.50;99.90;;;;;;6180063;28;20465;-57
2022/06/01 02:12:41;;;;;;;6.67;6.37;;;13.50;99.90;;;;;;6175027;28;20806;-56
2022/06/01 02:12:56;;;;;;;6.30;6.00;;;13.50;99.90;;;;;;6182481;28;20711;-57
2022/06/01 02:16:02;;;;;;;5.73;5.43;;;13.40;99.90;;;;;;6179821;28;20330;-57
2022/06/01 02:19:11;;;;;;;5.53;5.33;;;13.50;99.90;;;;;;6188894;28;20318;-60
2022/06/01 02:22:14;;;;;;;5.97;5.77;;;13.60;99.90;;;;;;6180050;28;21168;-56
2022/06/01 02:25:17;;;;;;;6.23;6.03;;;13.60;99.90;;;;;;6166992;28;20789;-56
2022/06/01 02:28:21;;;;;;;5.53;5.30;;;13.50;99.90;;;;;;6176418;28;20237;-56
2022/06/01 02:31:25;;;;;;;5.67;5.27;;;13.50;99.90;;;;;;6178819;28;20723;-56
2022/06/01 02:34:29;;;;;;;5.47;5.30;;;13.50;99.90;;;;;;6185367;28;20243;-57
2022/06/01 02:37:34;;;;;;;6.10;5.83;;;13.60;99.90;;;;;;6179062;28;20479;-56
2022/06/01 02:40:38;;;;;;;5.67;5.33;;;13.50;99.90;;;;;;6141430;28;1048868;-56
2022/06/01 02:43:50;;;;;;;5.20;5.10;;;13.50;99.30;;;;;;6178063;28;20295;-58
2022/06/01 02:46:53;;;;;;;5.30;5.10;;;13.50;97.60;;;;;;6182299;28;20291;-57
2022/06/01 02:49:55;;;;;;;5.30;5.00;;;13.50;95.00;;;;;;6179357;28;20402;-56
2022/06/01 02:52:58;;;;;;;6.10;5.80;;;13.50;94.50;;;;;;6176501;28;20822;-56
2022/06/01 02:56:01;;;;;;;6.40;6.00;;;13.50;96.90;;;;;;6182930;28;20306;-57
2022/06/01 02:59:05;;;;;;;5.43;5.13;;;13.50;96.40;;;;;;6175936;28;20377;-57
2022/06/01 03:02:09;;;;;;;4.67;4.50;;;13.50;96.20;;;;;;6174474;28;20232;-57
2022/06/01 03:05:13;;;;;;;4.87;4.77;;;13.50;96.30;;;;;;6178001;28;20232;-59
2022/06/01 03:08:16;;;;;;;4.53;4.43;;;13.50;95.80;;;;;;6180113;28;20245;-56
2022/06/01 03:11:18;;;;;;;4.83;4.73;;;13.50;95.60;;;;;;6180668;28;20291;-55
2022/06/01 03:14:22;;;;;;;4.33;4.20;;;13.50;94.60;;;;;;6181619;28;20366;-56
2022/06/01 03:17:25;;;;;;;4.90;4.70;;;13.50;93.90;;;;;;6186241;28;20559;-58
2022/06/01 03:20:29;;;;;;;4.70;4.57;;;13.50;93.60;;;;;;6181659;28;20325;-57
2022/06/01 03:23:31;;;;;;;4.80;4.60;;;13.60;94.00;;;;;;6185817;28;20272;-57
2022/06/01 03:26:34;;;;;;;5.13;4.73;;;13.50;92.20;;;;;;6177367;28;20256;-56
2022/06/01 03:29:38;;;;;;;4.53;4.33;;;13.60;90.60;;;;;;6169934;28;20327;-56
2022/06/01 03:32:41;;;;;;;4.00;3.90;;;13.60;84.50;;;;;;6161579;28;20229;-56
2022/06/01 03:35:43;;;;;;;4.50;4.30;;;13.60;78.70;;;;;;6184672;28;20883;-57
2022/06/01 03:38:46;;;;;;;5.07;4.80;;;13.60;76.10;;;;;;6183993;28;20235;-56
2022/06/01 03:41:49;;;;;;;4.20;4.10;;;13.60;71.90;;;;;;6185584;28;20277;-57
2022/06/01 03:48:14;;;;;;;5.00;4.80;;;13.60;76.10;;;;;;6154835;28;20237;-55
2022/06/01 03:51:18;;;;;;;5.33;5.13;;;13.60;76.10;;;;;;6181214;28;20235;-57
2022/06/01 03:54:20;;;;;;;5.17;4.97;;;13.50;79.60;;;;;;6186685;28;20286;-59
2022/06/01 03:57:23;;;;;;;5.60;5.40;;;13.50;76.00;;;;;;6179583;28;20240;-56
2022/06/01 04:00:28;;;;;;;5.30;5.10;;;13.50;76.00;;;;;;6180800;28;20604;-55
2022/06/01 04:03:31;;;;;;;5.77;5.50;;;13.50;76.10;;;;;;6186490;28;20281;-57
2022/06/01 04:06:33;;;;;;;5.70;5.50;;;13.60;76.10;;;;;;6184069;28;20240;-58
2022/06/01 04:09:36;;;;;;;5.80;5.60;;;13.60;77.40;;;;;;6179555;28;20236;-57
2022/06/01 04:12:39;;;;;;;5.50;5.33;;;13.80;80.10;;;;;;6183072;28;20383;-56
2022/06/01 04:15:44;;;;;;;6.57;6.37;;;13.70;89.20;;;;;;6185208;28;20304;-57
2022/06/01 04:18:46;;;;;;;6.87;6.37;;;13.60;99.90;;;;;;6188169;28;20238;-57
2022/06/01 04:21:52;;;;;;;7.80;7.37;;;13.60;99.90;;;;;;6190709;28;20589;-55
2022/06/01 04:24:55;;;;;;;6.97;6.60;;;13.60;99.90;;;;;;6178886;28;20225;-57
2022/06/01 04:27:58;;;;;;;7.40;7.10;;;13.50;99.90;;;;;;6180370;28;20319;-57
2022/06/01 04:31:02;;;;;;;8.10;7.50;;;13.50;99.90;;;;;;6195025;28;20424;-57
2022/06/01 04:34:05;;;;;;;7.93;7.50;;;13.50;99.90;;;;;;6194320;28;20886;-57
2022/06/01 04:37:08;;;;;;;7.50;7.10;;;13.50;99.90;;;;;;6175759;28;20251;-56
2022/06/01 04:40:13;;;;;;;6.57;6.27;;;13.50;99.90;;;;;;6186338;28;20244;-57
2022/06/01 04:43:18;;;;;;;6.97;6.57;;;13.50;99.90;;;;;;6176782;28;20236;-56
2022/06/01 04:46:29;;;;;;;8.47;7.87;;;13.50;99.90;;;;;;6195659;28;20235;-57
2022/06/01 04:49:33;;;;;;;7.20;6.90;;;13.50;99.90;;;;;;6188001;28;20291;-56
2022/06/01 04:52:35;;;;;;;7.67;7.27;;;13.60;99.90;;;;;;6180086;28;20316;-56
2022/06/01 04:55:38;;;;;;;7.60;7.30;;;13.60;99.90;;;;;;6186235;28;20255;-56
2022/06/01 04:58:41;;;;;;;7.90;7.30;;;13.80;98.70;;;;;;6187560;28;20331;-55
2022/06/01 05:01:45;;;;;;;7.87;7.37;;;13.90;95.10;;;;;;6192212;28;20266;-57
2022/06/01 05:04:48;;;;;;;7.20;6.70;;;14.00;91.50;;;;;;6182700;28;20232;-55
2022/06/01 05:07:51;;;;;;;8.03;7.47;;;14.10;59.40;;;;;;6187147;28;20307;-56
2022/06/01 05:10:53;;;;;;;7.50;7.10;;;14.10;50.20;;;;;;6183433;28;20231;-56
2022/06/01 05:13:56;;;;;;;6.90;6.47;;;14.40;50.00;;;;;;6183336;28;20783;-57
2022/06/01 05:17:01;;;;;;;7.13;6.63;;;14.60;26.60;;;;;;6186249;28;20315;-57
2022/06/01 05:20:05;;;;;;;7.27;6.87;;;14.70;6.10;;;;;;6181223;28;20319;-56
2022/06/01 05:23:08;;;;;;;7.57;7.17;;;14.60;6.60;;;;;;6193583;28;20327;-56
2022/06/01 05:26:16;;;;;;;7.60;7.23;;;14.70;16.40;;;;;;6191258;28;20240;-56
2022/06/01 05:29:19;;;;;;;7.33;6.93;;;14.70;1.00;;;;;;6178609;28;20707;-57
2022/06/01 05:32:24;;;;;;;7.97;7.47;;;14.70;1.00;;;;;;6175013;28;20672;-57
2022/06/01 05:35:26;;;;;;;7.53;6.83;;;14.60;1.00;;;;;;6189916;28;20281;-56
2022/06/01 05:38:29;;;;;;;6.00;5.80;;;14.60;1.00;;;;;;6192720;28;20902;-58
2022/06/01 05:41:32;;;;;;;6.63;6.23;;;14.70;1.00;;;;;;6186939;28;20479;-56
2022/06/01 05:44:35;;;;;;;6.83;6.60;;;14.70;1.00;;;;;;6186460;28;20335;-49
2022/06/01 05:47:39;;;;;;;6.70;6.40;;;14.90;1.00;;;;;;6189790;28;20359;-55
2022/06/01 05:50:43;;;;;;;6.27;6.07;;;15.00;1.00;;;;;;6182978;28;20784;-58
2022/06/01 05:53:46;;;;;;;6.43;6.13;;;15.20;1.00;;;;;;6190167;28;20252;-57
2022/06/01 05:56:49;;;;;;;6.17;5.97;;;15.40;1.00;;;;;;6178989;28;20228;-57
2022/06/01 05:59:51;;;;;;;6.40;6.17;;;15.70;1.00;;;;;;6184157;28;20248;-56
2022/06/01 06:02:55;;;;;;;6.27;5.97;;;16.00;1.00;;;;;;6188053;28;20399;-56
2022/06/01 06:06:18;;;;;;;5.07;4.77;;;16.20;1.00;;;;;;6186287;28;20319;-56
2022/06/01 06:09:24;;;;;;;5.27;5.13;;;16.60;1.00;;;;;;6165670;28;20324;-57
2022/06/01 06:12:27;;;;;;;5.53;5.23;;;16.90;1.00;;;;;;6183882;28;20322;-57
2022/06/01 06:15:30;;;;;;;5.43;5.17;;;17.40;1.00;;;;;;6191149;28;20246;-58
2022/06/01 06:18:34;;;;;;;4.20;4.10;;;17.70;1.00;;;;;;6185754;28;20327;-57
2022/06/01 06:21:36;;;;;;;5.00;4.70;;;17.60;1.00;;;;;;6188300;28;20231;-58
2022/06/01 06:24:39;;;;;;;5.10;4.83;;;17.90;1.00;;;;;;6194683;28;20363;-56
2022/06/01 06:27:42;;;;;;;4.77;4.67;;;18.00;1.00;;;;;;6185317;28;20711;-57
2022/06/01 06:30:44;;;;;;;5.10;4.00;;;18.10;1.00;;;;;;6187755;28;20562;-57
2022/06/01 06:33:49;;;;;;;4.17;4.07;;;18.30;1.00;;;;;;6187257;28;20554;-57
2022/06/01 06:36:51;;;;;;;4.17;4.07;;;18.30;1.00;;;;;;6182257;28;20285;-57
2022/06/01 06:39:54;;;;;;;4.50;4.20;;;18.20;1.00;;;;;;6186811;28;20315;-59
2022/06/01 06:42:57;;;;;;;4.30;4.13;;;18.10;1.00;;;;;;6174296;28;20310;-58
2022/06/01 06:46:02;;;;;;;3.90;3.80;;;18.20;1.00;;;;;;6196332;28;20700;-57
2022/06/01 06:49:06;;;;;;;4.77;3.70;;;18.10;1.00;;;;;;6186618;28;20334;-58
2022/06/01 06:52:10;;;;;;;4.07;3.93;;;18.20;1.00;;;;;;6184849;28;20402;-57
2022/06/01 06:55:14;;;;;;;3.80;3.70;;;18.30;1.00;;;;;;6191293;28;20396;-58
2022/06/01 06:58:18;;;;;;;4.20;4.10;;;18.00;1.00;;;;;;6193545;28;20650;-58
2022/06/01 07:01:20;;;;;;;4.37;4.20;;;18.00;1.00;;;;;;6191088;28;20390;-56
2022/06/01 07:04:24;;;;;;;4.07;3.97;;;17.80;1.00;;;;;;6194381;28;20303;-58
2022/06/01 07:07:27;;;;;;;3.90;3.60;;;18.00;1.00;;;;;;6187508;28;20250;-57
2022/06/01 07:10:30;;;;;;;4.00;3.90;;;18.30;1.00;;;;;;6191608;28;20239;-57
2022/06/01 07:13:34;;;;;;;3.60;3.40;;;18.40;1.00;;;;;;6183232;28;20442;-57
2022/06/01 07:16:37;;;;;;;3.70;3.60;;;18.50;1.00;;;;;;6187085;28;20242;-57
2022/06/01 07:19:41;;;;;;;4.00;3.90;;;18.70;1.00;;;;;;6191331;28;20252;-58
2022/06/01 07:22:43;;;;;;;3.60;3.50;;;19.00;1.00;;;;;;6181588;28;20228;-52
2022/06/01 07:25:46;;;;;;;4.00;3.90;;;19.30;1.00;;;;;;6185039;28;20311;-56
2022/06/01 07:28:49;;;;;;;3.90;3.63;;;19.20;1.00;;;;;;6188786;28;20255;-57
2022/06/01 07:31:52;;;;;;;3.80;3.60;;;19.30;1.00;;;;;;6183569;28;20503;-56
2022/06/01 07:34:56;;;;;;;3.97;3.87;;;19.20;1.00;;;;;;6189891;28;20232;-57
2022/06/01 07:44:50;;;;;;;3.73;3.20;;;18.90;1.00;;;;;;6189894;28;20315;-57
2022/06/01 07:47:52;;;;;;;4.20;3.90;;;18.60;1.00;;;;;;6193957;28;20239;-56
2022/06/01 07:51:17;;;;;;;3.30;3.20;;;18.40;1.00;;;;;;6183066;28;20263;-58
2022/06/01 07:54:19;;;;;;;3.37;3.23;;;18.30;1.00;;;;;;6195447;28;20701;-58
2022/06/01 07:57:22;;;;;;;3.50;3.30;;;18.50;1.00;;;;;;6192295;28;20296;-58
2022/06/01 08:00:25;;;;;;;3.87;3.60;;;18.40;1.00;;;;;;6185390;28;20232;-58
2022/06/01 08:03:28;;;;;;;3.33;3.23;;;18.40;1.00;;;;;;6188505;28;20634;-57
2022/06/01 08:06:34;;;;;;;3.37;3.20;;;18.40;1.00;;;;;;6180067;28;20318;-56
2022/06/01 08:09:57;;;;;;;3.73;3.37;;;18.40;1.00;;;;;;6190431;28;20680;-57
2022/06/01 08:13:09;;;;;;;4.80;3.43;;;18.40;1.00;;;;;;6178792;28;20283;-57
2022/06/01 08:16:12;;;;;;;3.60;3.30;;;18.30;1.00;;;;;;6183989;28;20641;-56
2022/06/01 08:19:16;;;;;;;3.97;3.67;;;18.10;1.00;;;;;;6188849;28;20235;-57
2022/06/01 08:22:20;;;;;;;3.33;3.23;;;18.10;1.00;;;;;;6183631;28;20250;-58
2022/06/01 08:25:25;;;;;;;4.07;3.67;;;18.20;1.00;;;;;;6186268;28;20239;-57
2022/06/01 08:28:28;;;;;;;3.70;3.60;;;18.40;1.00;;;;;;6193610;28;20438;-56
2022/06/01 08:31:32;;;;;;;3.80;3.60;;;18.40;1.00;;;;;;6189807;28;20301;-56
2022/06/01 08:34:36;;;;;;;3.80;3.63;;;18.40;1.00;;;;;;6192590;28;20258;-56
2022/06/01 08:37:41;;;;;;;3.50;3.40;;;18.40;1.00;;;;;;6177600;28;20239;-57
2022/06/01 08:40:53;;;;;;;3.80;3.70;;;18.40;1.00;;;;;;6181883;28;20657;-57
2022/06/01 08:43:58;;;;;;;3.93;3.60;;;18.60;1.00;;;;;;6181996;28;20236;-56
2022/06/01 08:47:06;;;;;;;3.80;3.60;;;18.70;1.00;;;;;;6185438;28;20333;-58
2022/06/01 08:50:16;;;;;;;3.63;3.50;;;18.80;1.00;;;;;;6185541;28;20239;-58
2022/06/01 08:53:22;;;;;;;3.47;3.37;;;18.80;1.00;;;;;;6192084;28;20421;-56
2022/06/01 08:56:29;;;;;;;3.33;3.23;;;18.80;1.00;;;;;;6195110;28;20670;-58
2022/06/01 08:59:41;;;;;;;3.40;3.13;;;19.00;1.00;;;;;;6194792;28;20262;-57
2022/06/01 09:02:50;;;;;;;3.23;3.13;;;19.20;1.00;;;;;;6192613;28;20627;-58
2022/06/01 09:05:59;;;;;;;2.87;2.73;;;19.20;1.00;;;;;;6191663;28;20240;-57
2022/06/01 09:09:07;;;;;;;3.80;3.57;;;19.30;1.00;;;;;;6186591;28;20857;-56
2022/06/01 09:12:10;;;;;;;4.13;3.60;;;19.20;1.00;;;;;;6183683;28;20267;-57
2022/06/01 09:15:18;;;;;;;3.30;3.20;;;19.10;1.00;;;;;;6182823;28;20236;-56
2022/06/01 09:18:24;;;;;;;3.60;3.37;;;19.10;1.00;;;;;;6191295;28;20434;-57
2022/06/01 09:24:52;;;;;;;3.30;3.20;;;19.30;1.00;;;;;;6186580;28;20231;-57
2022/06/01 09:27:59;;;;;;;3.00;2.90;;;19.30;1.00;;;;;;6192582;28;20438;-57
2022/06/01 09:31:09;;;;;;;3.00;2.90;;;19.40;1.00;;;;;;6189279;28;20757;-57
2022/06/01 09:34:20;;;;;;;3.17;3.07;;;19.50;1.00;;;;;;6181991;28;20240;-56
2022/06/01 09:37:26;;;;;;;3.03;2.83;;;19.50;1.00;;;;;;6179754;28;20718;-57
2022/06/01 09:40:33;;;;;;;3.13;2.93;;;19.60;1.00;;;;;;6181071;28;20331;-57
2022/06/01 09:43:39;;;;;;;3.63;3.30;;;19.40;1.00;;;;;;6195662;28;20680;-57
2022/06/01 09:46:52;;;;;;;2.97;2.87;;;19.40;1.00;;;;;;6183259;28;20599;-58
2022/06/01 09:49:59;;;;;;;3.80;3.20;;;19.50;1.00;;;;;;6191820;28;20246;-58
2022/06/01 09:53:14;;;;;;;3.37;3.17;;;19.30;1.00;;;;;;6187017;28;20243;-55
2022/06/01 09:56:30;;;;;;;3.83;3.07;;;19.10;1.00;;;;;;6184512;28;20318;-57
2022/06/01 10:06:25;;;;;;;3.00;2.80;;;19.10;1.00;;;;;;6194676;28;20647;-58
2022/06/01 10:09:30;;;;;;;4.10;3.53;;;19.30;1.00;;;;;;6192128;28;20240;-57
2022/06/01 10:12:44;;;;;;;3.23;3.10;;;19.50;1.00;;;;;;6178413;28;20860;-57
2022/06/01 10:15:51;;;;;;;2.60;2.50;;;19.70;1.00;;;;;;6190573;28;20232;-52
2022/06/01 10:18:57;;;;;;;2.73;2.63;;;19.80;1.00;;;;;;6189003;28;20315;-57
2022/06/01 10:22:03;;;;;;;3.13;2.97;;;20.00;1.00;;;;;;6186730;28;20783;-59
2022/06/01 10:25:12;;;;;;;3.10;3.10;;;20.30;1.00;;;;;;6193299;28;20236;-57
2022/06/01 10:28:19;;;;;;;3.10;3.00;;;20.30;1.00;;;;;;6188684;28;20247;-57
2022/06/01 10:31:46;;;;;;;3.07;2.87;;;20.20;1.00;;;;;;6177447;28;20235;-56
2022/06/01 10:34:53;;;;;;;3.10;2.93;;;19.90;1.00;;;;;;6184593;28;20232;-57
2022/06/01 10:38:03;;;;;;;3.50;3.20;;;19.80;1.00;;;;;;6188661;28;20330;-57
2022/06/01 10:41:13;;;;;;;3.37;3.27;;;19.80;1.00;;;;;;6191128;28;20316;-56
2022/06/01 10:44:21;;;;;;;3.50;3.30;;;19.70;1.00;;;;;;6187475;28;20339;-57
2022/06/01 10:47:32;;;;;;;3.17;3.07;;;19.90;1.00;;;;;;6195104;28;20684;-56
2022/06/01 10:50:40;;;;;;;3.40;3.30;;;20.00;1.00;;;;;;6185484;28;20242;-58
2022/06/01 10:53:51;;;;;;;4.57;3.70;;;19.90;1.00;;;;;;6194257;28;20318;-57
2022/06/01 10:56:55;;;;;;;3.07;2.97;;;19.80;1.00;;;;;;6193897;28;20316;-56
2022/06/01 10:59:59;;;;;;;3.90;3.67;;;19.70;1.00;;;;;;6192021;28;20335;-56
2022/06/01 11:03:32;;;;;;;3.47;3.20;;;19.60;1.00;;;;;;6190026;28;20319;-57
2022/06/01 11:06:54;;;;;;;3.33;3.23;;;19.80;1.00;;;;;;6179959;28;20799;-56
2022/06/01 11:10:06;;;;;;;3.33;3.23;;;19.80;1.00;;;;;;6180087;28;20312;-56
2022/06/01 11:13:21;;;;;;;3.30;3.00;;;19.90;1.00;;;;;;6177684;28;20386;-56
2022/06/01 11:16:49;;;;;;;3.30;3.20;;;20.00;1.00;;;;;;6191000;28;20378;-61
2022/06/01 11:20:03;;;;;;;3.70;3.43;;;20.20;1.00;;;;;;6185264;28;20231;-60
2022/06/01 11:23:18;;;;;;;3.20;3.10;;;20.00;1.00;;;;;;6192460;28;20232;-58
2022/06/01 11:26:42;;;;;;;3.37;3.10;;;20.10;1.00;;;;;;6192407;28;20426;-56
2022/06/01 11:30:00;;;;;;;3.33;3.13;;;20.40;1.00;;;;;;6193072;28;20753;-57
2022/06/01 11:33:15;;;;;;;3.37;2.80;;;20.70;1.00;;;;;;6181212;28;20287;-56
2022/06/01 11:36:28;;;;;;;3.67;3.27;;;20.90;1.00;;;;;;6181698;28;20274;-55
2022/06/01 11:39:35;;;;;;;3.43;3.13;;;21.00;1.00;;;;;;6192076;28;20297;-57
2022/06/01 11:42:41;;;;;;;10.43;3.90;;;20.80;1.00;;;;;;6186504;28;20331;-57
2022/06/01 11:45:49;;;;;;;5.50;3.50;;;21.00;1.00;;;;;;6190095;28;20330;-56
2022/06/01 11:48:56;;;;;;;3.33;3.17;;;21.20;1.00;;;;;;6167257;28;20240;-55
2022/06/01 11:52:26;;;;;;;3.57;3.27;;;20.90;1.00;;;;;;6190515;28;20247;-57
2022/06/01 11:55:45;;;;;;;4.33;3.40;;;20.40;1.00;;;;;;6180713;28;20828;-55
2022/06/01 11:59:03;;;;;;;4.20;2.93;;;20.20;1.00;;;;;;6192220;28;20661;-57
2022/06/01 12:06:00;;;;;;;4.93;3.20;;;20.10;1.00;;;;;;6183071;28;20236;-58
2022/06/01 12:09:04;;;;;;;2.80;2.70;;;20.30;1.00;;;;;;6184929;28;20250;-58
2022/06/01 12:12:22;;;;;;;2.27;2.27;;;20.40;1.00;;;;;;6189395;28;20302;-56
2022/06/01 12:15:32;;;;;;;2.70;2.60;;;20.50;1.00;;;;;;6183445;28;20239;-56
2022/06/01 12:18:36;;;;;;;2.50;2.40;;;20.60;1.00;;;;;;6181225;28;20255;-56
2022/06/01 12:21:56;;;;;;;4.73;2.50;;;20.70;1.00;;;;;;6192485;28;20240;-57
2022/06/01 12:28:32;;;;;;;2.90;2.80;;;20.70;1.00;;;;;;6181811;28;20229;-55
2022/06/01 12:31:36;;;;;;;2.67;2.57;;;20.70;1.00;;;;;;6184220;28;20288;-56
2022/06/01 12:34:53;;;;;;;2.37;2.17;;;20.80;1.00;;;;;;6189699;28;20266;-56
2022/06/01 12:38:03;;;;;;;2.17;2.07;;;20.90;1.00;;;;;;6186943;28;20278;-55
2022/06/01 12:41:15;;;;;;;2.37;2.30;;;20.90;1.00;;;;;;6195396;28;20231;-56
2022/06/01 12:44:19;;;;;;;2.60;2.40;;;20.80;1.00;;;;;;6186891;28;20259;-57
2022/06/01 12:47:25;;;;;;;2.20;2.10;;;20.60;1.00;;;;;;6188919;28;20258;-58
2022/06/01 12:50:30;;;;;;;4.23;1.97;;;20.40;1.00;;;;;;6185527;28;20733;-56
2022/06/01 12:53:44;;;;;;;2.37;2.20;;;19.90;1.00;;;;;;6192010;28;20239;-56
2022/06/01 12:56:48;;;;;;;2.47;2.37;;;19.70;1.00;;;;;;6192314;28;20673;-57
2022/06/01 12:59:57;;;;;;;3.70;3.33;;;19.40;1.00;;;;;;6196979;28;20240;-58
2022/06/01 13:03:00;;;;;;;5.20;4.40;;;18.80;1.00;;;;;;6195053;28;20793;-58
2022/06/01 13:06:10;;;;;;;7.30;3.57;;;18.20;1.00;;;;;;6190213;28;20230;-57
2022/06/01 13:09:21;;;;;;;3.93;3.00;;;17.50;1.00;;;;;;6190202;28;20379;-57
2022/06/01 13:12:30;;;;;;;2.90;2.80;;;16.80;1.00;;;;;;6180554;28;20229;-56
2022/06/01 13:15:32;;;;;;;3.43;3.33;;;16.20;1.00;;;;;;6186535;28;20255;-57
2022/06/01 13:18:40;;;;;;;4.20;3.80;;;15.70;1.00;;;;;;6185281;28;20334;-56
2022/06/01 13:21:46;;;;;;;4.07;3.80;;;15.30;1.00;;;;;;6183865;28;20242;-56
2022/06/01 13:24:56;;;;;;;4.30;4.07;;;15.10;1.00;;;;;;6188357;28;20275;-57
2022/06/01 13:28:00;;;;;;;3.50;3.40;;;15.30;1.00;;;;;;6183937;28;20236;-56
2022/06/01 13:31:03;;;;;;;4.20;4.00;;;15.40;1.00;;;;;;6180015;28;20370;-53
2022/06/01 13:34:08;;;;;;;4.03;3.73;;;15.60;1.00;;;;;;6182778;28;20863;-55
2022/06/01 13:37:15;;;;;;;3.37;3.17;;;15.90;1.00;;;;;;6178653;28;20323;-56
2022/06/01 13:40:29;;;;;;;3.10;3.00;;;16.20;1.00;;;;;;6190587;28;20425;-54
2022/06/01 13:43:41;;;;;;;3.13;3.03;;;16.50;1.00;;;;;;6196232;28;20290;-56
2022/06/01 13:46:48;;;;;;;3.10;3.00;;;16.90;1.00;;;;;;6183474;28;20247;-54
2022/06/01 13:49:53;;;;;;;3.03;2.83;;;17.30;1.00;;;;;;6194412;28;20307;-55
2022/06/01 13:53:06;;;;;;;3.30;3.20;;;17.40;1.00;;;;;;6184566;28;20238;-55
2022/06/01 13:56:22;;;;;;;2.97;2.80;;;17.40;1.00;;;;;;6190124;28;20695;-56
2022/06/01 13:59:32;;;;;;;3.43;3.20;;;17.40;1.00;;;;;;6191699;28;20240;-56
2022/06/01 14:02:38;;;;;;;3.73;3.63;;;17.40;1.00;;;;;;6170083;28;20745;-56
2022/06/01 14:05:44;;;;;;;3.97;3.77;;;17.70;1.00;;;;;;6184785;28;20233;-55
2022/06/01 14:08:50;;;;;;;5.13;3.67;;;17.80;1.00;;;;;;6188877;28;20232;-55
2022/06/01 14:11:55;;;;;;;4.40;4.00;;;17.90;1.00;;;;;;6183180;28;20244;-58
2022/06/01 14:14:58;;;;;;;4.30;4.00;;;18.20;1.00;;;;;;6184019;28;20369;-56
2022/06/01 14:18:06;;;;;;;3.93;3.73;;;18.40;1.00;;;;;;6186295;28;20907;-56
2022/06/01 14:21:09;;;;;;;3.27;3.17;;;18.50;1.00;;;;;;6183491;28;20327;-55
2022/06/01 14:24:12;;;;;;;3.53;3.23;;;18.60;1.00;;;;;;6184527;28;20803;-55
2022/06/01 14:30:37;;;;;;;3.23;3.03;;;19.00;1.00;;;;;;6184349;28;20544;-56
2022/06/01 14:33:42;;;;;;;3.23;3.13;;;19.10;1.00;;;;;;6191736;28;20365;-55
2022/06/01 14:36:44;;;;;;;2.83;2.83;;;19.20;1.00;;;;;;6190725;28;20239;-55
2022/06/01 14:39:47;;;;;;;3.00;2.90;;;19.40;1.00;;;;;;6192001;28;20291;-55
2022/06/01 14:42:51;;;;;;;3.43;3.23;;;19.40;1.00;;;;;;6170509;28;20330;-56
2022/06/01 14:45:54;;;;;;;3.57;3.37;;;19.50;1.00;;;;;;6186630;28;20242;-57
2022/06/01 14:48:56;;;;;;;3.90;3.60;;;19.40;1.00;;;;;;6182605;28;20254;-55
2022/06/01 14:52:02;;;;;;;3.50;3.30;;;19.50;1.00;;;;;;6182008;28;20235;-55
2022/06/01 14:55:07;;;;;;;3.07;2.97;;;19.50;1.00;;;;;;6151407;28;20615;-56
2022/06/01 14:58:11;;;;;;;2.70;2.70;;;19.50;1.00;;;;;;6181352;28;20248;-57
2022/06/01 15:01:17;;;;;;;2.30;2.30;;;19.60;1.00;;;;;;6197149;28;20243;-55
2022/06/01 15:04:24;;;;;;;2.20;2.10;;;19.70;1.00;;;;;;6187983;28;20282;-57
2022/06/01 15:07:26;;;;;;;2.10;2.10;;;19.80;1.00;;;;;;6183233;28;20469;-55
2022/06/01 15:10:29;;;;;;;2.20;2.20;;;19.80;1.00;;;;;;6194216;28;20263;-56
2022/06/01 15:13:33;;;;;;;2.77;2.77;;;19.90;1.00;;;;;;6182998;28;20395;-56
2022/06/01 15:16:39;;;;;;;3.03;2.70;;;20.00;1.00;;;;;;6193581;28;20263;-56
2022/06/01 15:19:43;;;;;;;2.97;2.87;;;19.90;1.00;;;;;;6191115;28;20262;-55
2022/06/01 15:22:46;;;;;;;2.43;2.43;;;19.90;1.00;;;;;;6183169;28;20267;-56
2022/06/01 15:25:49;;;;;;;2.83;2.40;;;19.80;1.00;;;;;;6201151;28;20838;-56
2022/06/01 15:28:53;;;;;;;2.10;2.10;;;19.80;1.00;;;;;;6192397;28;20752;-56
2022/06/01 15:41:58;;;;;;;2.00;2.00;;;20.10;1.00;;;;;;6187678;28;20329;-55
2022/06/01 15:45:02;;;;;;;2.13;2.07;;;20.10;1.00;;;;;;6198911;28;20236;-55
2022/06/01 15:48:07;;;;;;;1.90;1.90;;;20.00;1.00;;;;;;6197390;28;20250;-55
2022/06/01 15:51:10;;;;;;;1.93;1.93;;;20.10;1.00;;;;;;6182706;28;20238;-55
2022/06/01 15:54:13;;;;;;;1.90;1.90;;;20.10;1.00;;;;;;6188524;28;20330;-55
2022/06/01 15:57:15;;;;;;;1.83;1.73;;;20.00;1.00;;;;;;6187079;28;20347;-56
2022/06/01 16:00:20;;;;;;;1.90;1.90;;;19.90;1.00;;;;;;6194324;28;20319;-55
2022/06/01 16:03:23;;;;;;;2.23;2.17;;;19.90;1.00;;;;;;6178932;28;20724;-55
2022/06/01 16:06:26;;;;;;;2.97;1.90;;;19.90;1.00;;;;;;6189022;28;20239;-56
2022/06/01 16:09:29;;;;;;;1.87;1.87;;;20.00;1.00;;;;;;6194704;28;20736;-54
2022/06/01 16:12:31;;;;;;;2.20;2.20;;;20.00;1.00;;;;;;6187032;28;20248;-54
2022/06/01 16:15:36;;;;;;;3.30;2.23;;;19.90;1.00;;;;;;6198857;28;20242;-55
2022/06/01 16:18:40;;;;;;;2.30;2.20;;;19.90;1.00;;;;;;6190786;28;20542;-56
2022/06/01 16:21:43;;;;;;;2.23;2.13;;;19.60;1.00;;;;;;6192507;28;20330;-55
2022/06/01 16:24:46;;;;;;;2.17;2.17;;;19.40;1.00;;;;;;6188195;28;20282;-55
2022/06/01 16:27:50;;;;;;;2.40;2.30;;;19.30;1.00;;;;;;6189487;28;20258;-56
2022/06/01 16:30:54;;;;;;;2.00;2.00;;;19.30;1.00;;;;;;6189955;28;20603;-56
2022/06/01 16:33:58;;;;;;;2.23;2.23;;;19.30;1.00;;;;;;6183989;28;20228;-55
2022/06/01 16:37:00;;;;;;;2.50;2.40;;;19.40;1.00;;;;;;6183342;28;20242;-56
2022/06/01 16:40:04;;;;;;;2.67;2.47;;;19.50;1.00;;;;;;6191896;28;20310;-55
2022/06/01 16:43:07;;;;;;;2.70;2.50;;;19.30;1.00;;;;;;6186593;28;20238;-55
2022/06/01 16:46:12;;;;;;;2.17;2.07;;;19.20;1.00;;;;;;6184347;28;20940;-55
2022/06/01 16:49:15;;;;;;;2.13;2.13;;;19.10;1.00;;;;;;6188276;28;20700;-56
2022/06/01 16:52:17;;;;;;;2.23;2.13;;;19.10;1.00;;;;;;6189290;28;20240;-56
2022/06/01 16:55:20;;;;;;;2.40;2.30;;;19.00;1.00;;;;;;6194228;28;20411;-56
2022/06/01 16:58:23;;;;;;;2.60;2.50;;;19.00;1.00;;;;;;6195229;28;20314;-55